CheckWX is a tool to help pilots better visualize weather data.  It is not intended as a substitute for an official pre-flight weather briefing.

07:37:34 UTC

PAHC METAR
Holy Cross Airport
Holy Cross, Alaska, USA
Current

42 mins ago

PAHC 190656Z AUTO 35014KT 10SM OVC095 M19/M23 A2960 RMK AO2 SLP027 T11941233 FZRANO
Observed
Jan-19 @ 06:56 UTC
Wind
  • 350° at 14 KTS
Visibility
10 SM
Flight Rules
VFR
Cloud Levels
  • Overcast at 9,500' AGL
Temperature
-19°C / -2°F
Dewpoint
-23°C / -9°F
Humidity
71%
Altimeter
29.6" Hg
Pressure
1002.42 hPa
Previous

2 hours ago

PAHC 190556Z AUTO 35015G18KT 10SM OVC085 M19/M23 A2960 RMK AO2 SLP029 T11891233 11172 21194 58002 FZRANO
Observed
Jan-19 @ 05:56 UTC
Wind
  • 350° at 15 KTS
  • Gusting to 18 KTS
Visibility
10 SM
Flight Rules
VFR
Cloud Levels
  • Overcast at 8,500' AGL
Temperature
-19°C / -2°F
Dewpoint
-23°C / -9°F
Humidity
71%
Altimeter
29.6" Hg
Pressure
1002.42 hPa
Previous

3 hours ago

PAHC 190456Z AUTO 34014G19KT 10SM OVC080 M19/M23 A2961 RMK AO2 SLP032 T11891228 FZRANO
Observed
Jan-19 @ 04:56 UTC
Wind
  • 340° at 14 KTS
  • Gusting to 19 KTS
Visibility
10 SM
Flight Rules
VFR
Cloud Levels
  • Overcast at 8,000' AGL
Temperature
-19°C / -2°F
Dewpoint
-23°C / -9°F
Humidity
71%
Altimeter
29.61" Hg
Pressure
1002.72 hPa